sensor_id;sensor_type;location;lat;lon;timestamp;P1;durP1;ratioP1;P2;durP2;ratioP2
75700;SDS011;64321;48.796;44.740;2024-03-23T00:55:51;9.80;;;4.50;;
75700;SDS011;64321;48.796;44.740;2024-03-23T01:00:52;9.20;;;5.70;;
75700;SDS011;64321;48.796;44.740;2024-03-23T01:05:53;9.52;;;4.47;;
75700;SDS011;64321;48.796;44.740;2024-03-23T01:10:55;10.60;;;5.93;;
75700;SDS011;64321;48.796;44.740;2024-03-23T01:15:58;9.55;;;5.18;;
75700;SDS011;64321;48.796;44.740;2024-03-23T01:20:59;10.10;;;5.45;;
75700;SDS011;64321;48.796;44.740;2024-03-23T01:26:01;11.23;;;6.00;;
75700;SDS011;64321;48.796;44.740;2024-03-23T01:31:02;11.77;;;5.15;;
75700;SDS011;64321;48.796;44.740;2024-03-23T01:36:04;12.43;;;6.15;;
75700;SDS011;64321;48.796;44.740;2024-03-23T01:41:05;8.27;;;4.95;;
75700;SDS011;64321;48.796;44.740;2024-03-23T01:46:07;8.15;;;4.68;;
75700;SDS011;64321;48.796;44.740;2024-03-23T01:51:08;9.75;;;5.20;;
75700;SDS011;64321;48.796;44.740;2024-03-23T01:56:10;10.77;;;5.53;;
75700;SDS011;64321;48.796;44.740;2024-03-23T02:01:11;12.23;;;4.93;;
75700;SDS011;64321;48.796;44.740;2024-03-23T02:06:13;9.55;;;5.13;;
75700;SDS011;64321;48.796;44.740;2024-03-23T02:11:14;9.82;;;4.47;;
75700;SDS011;64321;48.796;44.740;2024-03-23T02:16:15;11.40;;;5.72;;
75700;SDS011;64321;48.796;44.740;2024-03-23T02:21:17;9.43;;;5.35;;
75700;SDS011;64321;48.796;44.740;2024-03-23T02:26:18;11.18;;;5.32;;
75700;SDS011;64321;48.796;44.740;2024-03-23T02:31:19;12.02;;;5.63;;
75700;SDS011;64321;48.796;44.740;2024-03-23T02:36:21;10.60;;;4.85;;
75700;SDS011;64321;48.796;44.740;2024-03-23T02:41:23;13.30;;;5.47;;
75700;SDS011;64321;48.796;44.740;2024-03-23T02:46:24;10.63;;;5.82;;
75700;SDS011;64321;48.796;44.740;2024-03-23T02:51:26;10.70;;;4.63;;
75700;SDS011;64321;48.796;44.740;2024-03-23T02:56:27;13.02;;;7.05;;
75700;SDS011;64321;48.796;44.740;2024-03-23T03:01:28;14.23;;;6.70;;
75700;SDS011;64321;48.796;44.740;2024-03-23T03:06:30;12.85;;;6.72;;
75700;SDS011;64321;48.796;44.740;2024-03-23T03:11:31;13.32;;;6.35;;
75700;SDS011;64321;48.796;44.740;2024-03-23T03:16:33;13.77;;;6.40;;
75700;SDS011;64321;48.796;44.740;2024-03-23T03:21:34;9.95;;;5.10;;
75700;SDS011;64321;48.796;44.740;2024-03-23T03:26:35;12.48;;;5.82;;
75700;SDS011;64321;48.796;44.740;2024-03-23T03:31:38;11.82;;;4.45;;
75700;SDS011;64321;48.796;44.740;2024-03-23T03:36:40;12.48;;;6.85;;
75700;SDS011;64321;48.796;44.740;2024-03-23T03:41:41;11.15;;;5.85;;
75700;SDS011;64321;48.796;44.740;2024-03-23T03:46:43;10.48;;;6.18;;
75700;SDS011;64321;48.796;44.740;2024-03-23T03:51:44;8.65;;;5.15;;
75700;SDS011;64321;48.796;44.740;2024-03-23T03:56:46;12.07;;;6.22;;
75700;SDS011;64321;48.796;44.740;2024-03-23T04:01:47;10.88;;;5.90;;
75700;SDS011;64321;48.796;44.740;2024-03-23T04:06:48;12.38;;;6.53;;
75700;SDS011;64321;48.796;44.740;2024-03-23T04:11:50;9.90;;;5.63;;
75700;SDS011;64321;48.796;44.740;2024-03-23T04:16:51;13.70;;;7.00;;
75700;SDS011;64321;48.796;44.740;2024-03-23T04:21:52;12.60;;;6.45;;
75700;SDS011;64321;48.796;44.740;2024-03-23T04:26:53;12.35;;;6.20;;
75700;SDS011;64321;48.796;44.740;2024-03-23T04:31:55;13.48;;;6.72;;
75700;SDS011;64321;48.796;44.740;2024-03-23T04:36:56;12.20;;;6.35;;
75700;SDS011;64321;48.796;44.740;2024-03-23T04:41:57;10.07;;;5.40;;
75700;SDS011;64321;48.796;44.740;2024-03-23T04:47:00;10.05;;;4.90;;
75700;SDS011;64321;48.796;44.740;2024-03-23T04:52:02;9.38;;;5.20;;
75700;SDS011;64321;48.796;44.740;2024-03-23T04:57:05;9.20;;;5.22;;
75700;SDS011;64321;48.796;44.740;2024-03-23T05:02:06;9.57;;;4.82;;
75700;SDS011;64321;48.796;44.740;2024-03-23T05:07:07;12.40;;;5.35;;
75700;SDS011;64321;48.796;44.740;2024-03-23T05:12:09;10.40;;;5.68;;
75700;SDS011;64321;48.796;44.740;2024-03-23T05:17:10;11.80;;;5.88;;
75700;SDS011;64321;48.796;44.740;2024-03-23T05:22:11;10.32;;;4.78;;
75700;SDS011;64321;48.796;44.740;2024-03-23T05:27:13;9.77;;;5.18;;
75700;SDS011;64321;48.796;44.740;2024-03-23T05:32:14;10.55;;;5.45;;
75700;SDS011;64321;48.796;44.740;2024-03-23T05:37:15;10.00;;;4.88;;
75700;SDS011;64321;48.796;44.740;2024-03-23T05:42:17;9.35;;;5.00;;
75700;SDS011;64321;48.796;44.740;2024-03-23T05:47:19;10.02;;;5.43;;
75700;SDS011;64321;48.796;44.740;2024-03-23T05:52:20;7.18;;;4.10;;
75700;SDS011;64321;48.796;44.740;2024-03-23T05:57:21;8.55;;;4.28;;
75700;SDS011;64321;48.796;44.740;2024-03-23T06:02:23;10.52;;;5.10;;
75700;SDS011;64321;48.796;44.740;2024-03-23T06:07:25;10.82;;;4.68;;
75700;SDS011;64321;48.796;44.740;2024-03-23T06:12:26;9.25;;;4.60;;
75700;SDS011;64321;48.796;44.740;2024-03-23T06:17:28;8.40;;;4.88;;
75700;SDS011;64321;48.796;44.740;2024-03-23T06:22:29;8.40;;;4.60;;
75700;SDS011;64321;48.796;44.740;2024-03-23T06:27:30;7.25;;;4.28;;
75700;SDS011;64321;48.796;44.740;2024-03-23T06:32:33;10.68;;;4.47;;
75700;SDS011;64321;48.796;44.740;2024-03-23T06:37:37;10.43;;;3.72;;
75700;SDS011;64321;48.796;44.740;2024-03-23T06:42:40;9.13;;;4.45;;
75700;SDS011;64321;48.796;44.740;2024-03-23T06:47:41;12.00;;;3.83;;
75700;SDS011;64321;48.796;44.740;2024-03-23T06:52:42;7.00;;;4.22;;
75700;SDS011;64321;48.796;44.740;2024-03-23T06:57:43;8.05;;;3.83;;
75700;SDS011;64321;48.796;44.740;2024-03-23T07:02:45;7.70;;;3.38;;
75700;SDS011;64321;48.796;44.740;2024-03-23T07:07:46;6.15;;;3.22;;
75700;SDS011;64321;48.796;44.740;2024-03-23T07:12:48;9.30;;;3.28;;
75700;SDS011;64321;48.796;44.740;2024-03-23T07:17:49;7.53;;;2.95;;
75700;SDS011;64321;48.796;44.740;2024-03-23T07:22:51;6.80;;;3.33;;
75700;SDS011;64321;48.796;44.740;2024-03-23T07:27:55;7.05;;;3.35;;
75700;SDS011;64321;48.796;44.740;2024-03-23T07:32:56;7.15;;;3.47;;
75700;SDS011;64321;48.796;44.740;2024-03-23T07:37:58;7.68;;;3.20;;
75700;SDS011;64321;48.796;44.740;2024-03-23T07:43:06;7.25;;;3.65;;
75700;SDS011;64321;48.796;44.740;2024-03-23T07:48:07;8.10;;;3.97;;
75700;SDS011;64321;48.796;44.740;2024-03-23T07:53:09;13.48;;;4.53;;
75700;SDS011;64321;48.796;44.740;2024-03-23T07:58:10;10.75;;;4.45;;
75700;SDS011;64321;48.796;44.740;2024-03-23T08:03:11;6.97;;;4.05;;
75700;SDS011;64321;48.796;44.740;2024-03-23T08:08:13;9.90;;;4.53;;
75700;SDS011;64321;48.796;44.740;2024-03-23T08:18:15;13.07;;;5.63;;
75700;SDS011;64321;48.796;44.740;2024-03-23T08:23:17;11.98;;;5.70;;
75700;SDS011;64321;48.796;44.740;2024-03-23T08:28:18;11.32;;;5.07;;
75700;SDS011;64321;48.796;44.740;2024-03-23T08:33:20;12.55;;;4.78;;
75700;SDS011;64321;48.796;44.740;2024-03-23T08:38:25;8.50;;;3.88;;
75700;SDS011;64321;48.796;44.740;2024-03-23T08:43:27;9.98;;;4.05;;
75700;SDS011;64321;48.796;44.740;2024-03-23T08:48:30;8.65;;;3.65;;
75700;SDS011;64321;48.796;44.740;2024-03-23T08:53:32;8.68;;;3.55;;
75700;SDS011;64321;48.796;44.740;2024-03-23T08:58:34;8.20;;;3.72;;
75700;SDS011;64321;48.796;44.740;2024-03-23T09:03:36;10.07;;;4.05;;
75700;SDS011;64321;48.796;44.740;2024-03-23T09:08:38;10.98;;;4.05;;
75700;SDS011;64321;48.796;44.740;2024-03-23T09:13:41;7.80;;;3.95;;
75700;SDS011;64321;48.796;44.740;2024-03-23T09:23:44;7.78;;;2.95;;
75700;SDS011;64321;48.796;44.740;2024-03-23T09:28:48;11.27;;;4.03;;
75700;SDS011;64321;48.796;44.740;2024-03-23T09:33:50;8.25;;;3.05;;
75700;SDS011;64321;48.796;44.740;2024-03-23T09:43:53;8.85;;;3.72;;
75700;SDS011;64321;48.796;44.740;2024-03-23T09:48:55;8.88;;;3.47;;
75700;SDS011;64321;48.796;44.740;2024-03-23T09:53:57;6.43;;;3.20;;
75700;SDS011;64321;48.796;44.740;2024-03-23T09:59:02;7.85;;;3.38;;
75700;SDS011;64321;48.796;44.740;2024-03-23T10:04:04;7.25;;;2.42;;
75700;SDS011;64321;48.796;44.740;2024-03-23T10:09:16;6.38;;;2.65;;
75700;SDS011;64321;48.796;44.740;2024-03-23T10:14:28;6.97;;;2.97;;
75700;SDS011;64321;48.796;44.740;2024-03-23T10:19:31;8.15;;;3.60;;
75700;SDS011;64321;48.796;44.740;2024-03-23T10:24:32;7.07;;;3.33;;
75700;SDS011;64321;48.796;44.740;2024-03-23T10:29:34;5.68;;;2.58;;
75700;SDS011;64321;48.796;44.740;2024-03-23T10:34:36;5.95;;;2.88;;
75700;SDS011;64321;48.796;44.740;2024-03-23T10:39:39;6.03;;;3.00;;
75700;SDS011;64321;48.796;44.740;2024-03-23T10:44:41;6.60;;;2.90;;
75700;SDS011;64321;48.796;44.740;2024-03-23T10:49:42;8.90;;;3.75;;
75700;SDS011;64321;48.796;44.740;2024-03-23T10:54:44;8.98;;;4.45;;
75700;SDS011;64321;48.796;44.740;2024-03-23T10:59:48;10.23;;;4.28;;
75700;SDS011;64321;48.796;44.740;2024-03-23T11:04:50;9.68;;;3.80;;
75700;SDS011;64321;48.796;44.740;2024-03-23T11:09:52;8.05;;;4.00;;
75700;SDS011;64321;48.796;44.740;2024-03-23T11:15:04;8.45;;;3.30;;
75700;SDS011;64321;48.796;44.740;2024-03-23T11:20:07;10.70;;;3.90;;
75700;SDS011;64321;48.796;44.740;2024-03-23T11:25:18;9.15;;;4.13;;
75700;SDS011;64321;48.796;44.740;2024-03-23T11:30:27;12.10;;;5.05;;
75700;SDS011;64321;48.796;44.740;2024-03-23T11:35:33;8.07;;;3.72;;
75700;SDS011;64321;48.796;44.740;2024-03-23T11:40:41;7.07;;;3.63;;
75700;SDS011;64321;48.796;44.740;2024-03-23T11:45:48;7.03;;;3.75;;
75700;SDS011;64321;48.796;44.740;2024-03-23T11:50:56;8.80;;;3.70;;
75700;SDS011;64321;48.796;44.740;2024-03-23T11:55:59;7.65;;;2.63;;
75700;SDS011;64321;48.796;44.740;2024-03-23T12:01:04;9.13;;;3.72;;
75700;SDS011;64321;48.796;44.740;2024-03-23T12:06:06;9.50;;;4.88;;
75700;SDS011;64321;48.796;44.740;2024-03-23T12:11:11;7.55;;;3.05;;
75700;SDS011;64321;48.796;44.740;2024-03-23T12:16:15;11.52;;;4.90;;
75700;SDS011;64321;48.796;44.740;2024-03-23T12:21:17;10.20;;;4.00;;
75700;SDS011;64321;48.796;44.740;2024-03-23T12:26:18;7.63;;;3.08;;
75700;SDS011;64321;48.796;44.740;2024-03-23T12:31:20;15.73;;;5.57;;
75700;SDS011;64321;48.796;44.740;2024-03-23T12:36:23;10.82;;;4.57;;
75700;SDS011;64321;48.796;44.740;2024-03-23T12:41:24;11.63;;;4.60;;
75700;SDS011;64321;48.796;44.740;2024-03-23T12:46:26;9.95;;;3.92;;
75700;SDS011;64321;48.796;44.740;2024-03-23T12:51:28;11.90;;;3.83;;
75700;SDS011;64321;48.796;44.740;2024-03-23T12:56:29;9.73;;;4.05;;
75700;SDS011;64321;48.796;44.740;2024-03-23T13:01:31;8.45;;;3.40;;
75700;SDS011;64321;48.796;44.740;2024-03-23T13:06:34;8.00;;;3.63;;
75700;SDS011;64321;48.796;44.740;2024-03-23T13:11:35;7.15;;;2.33;;
75700;SDS011;64321;48.796;44.740;2024-03-23T13:16:37;5.70;;;2.88;;
75700;SDS011;64321;48.796;44.740;2024-03-23T13:21:38;7.72;;;3.03;;
75700;SDS011;64321;48.796;44.740;2024-03-23T13:26:40;6.68;;;3.30;;
75700;SDS011;64321;48.796;44.740;2024-03-23T13:31:41;9.68;;;3.35;;
75700;SDS011;64321;48.796;44.740;2024-03-23T13:36:43;10.55;;;3.17;;
75700;SDS011;64321;48.796;44.740;2024-03-23T13:41:45;10.23;;;3.25;;
75700;SDS011;64321;48.796;44.740;2024-03-23T13:46:47;9.13;;;3.83;;
75700;SDS011;64321;48.796;44.740;2024-03-23T13:51:49;13.93;;;3.63;;
75700;SDS011;64321;48.796;44.740;2024-03-23T13:56:51;9.05;;;4.32;;
75700;SDS011;64321;48.796;44.740;2024-03-23T14:01:53;13.70;;;5.25;;
75700;SDS011;64321;48.796;44.740;2024-03-23T14:06:54;15.52;;;6.45;;
75700;SDS011;64321;48.796;44.740;2024-03-23T14:11:55;14.68;;;5.68;;
75700;SDS011;64321;48.796;44.740;2024-03-23T14:16:57;14.38;;;5.55;;
75700;SDS011;64321;48.796;44.740;2024-03-23T14:26:59;8.20;;;3.90;;
75700;SDS011;64321;48.796;44.740;2024-03-23T14:32:04;7.38;;;2.72;;
75700;SDS011;64321;48.796;44.740;2024-03-23T14:37:06;14.45;;;4.25;;
75700;SDS011;64321;48.796;44.740;2024-03-23T14:47:11;11.20;;;4.90;;
75700;SDS011;64321;48.796;44.740;2024-03-23T14:52:13;13.85;;;5.65;;
75700;SDS011;64321;48.796;44.740;2024-03-23T14:57:15;15.25;;;4.35;;
75700;SDS011;64321;48.796;44.740;2024-03-23T15:07:17;12.43;;;5.28;;
75700;SDS011;64321;48.796;44.740;2024-03-23T15:12:20;17.30;;;6.72;;
75700;SDS011;64321;48.796;44.740;2024-03-23T15:17:22;14.07;;;4.45;;
75700;SDS011;64321;48.796;44.740;2024-03-23T15:22:23;10.10;;;4.85;;
75700;SDS011;64321;48.796;44.740;2024-03-23T15:27:25;14.40;;;6.30;;
75700;SDS011;64321;48.796;44.740;2024-03-23T15:32:27;11.93;;;5.75;;
75700;SDS011;64321;48.796;44.740;2024-03-23T15:42:32;11.60;;;5.38;;
75700;SDS011;64321;48.796;44.740;2024-03-23T15:47:34;13.60;;;5.78;;
75700;SDS011;64321;48.796;44.740;2024-03-23T15:52:36;11.10;;;5.20;;
75700;SDS011;64321;48.796;44.740;2024-03-23T15:57:38;14.95;;;5.68;;
75700;SDS011;64321;48.796;44.740;2024-03-23T16:02:41;14.20;;;6.32;;
75700;SDS011;64321;48.796;44.740;2024-03-23T16:07:43;18.70;;;5.88;;
75700;SDS011;64321;48.796;44.740;2024-03-23T16:12:44;9.57;;;4.25;;
75700;SDS011;64321;48.796;44.740;2024-03-23T16:17:45;11.07;;;4.80;;
75700;SDS011;64321;48.796;44.740;2024-03-23T16:22:47;9.10;;;4.05;;
75700;SDS011;64321;48.796;44.740;2024-03-23T16:27:48;9.05;;;4.38;;
75700;SDS011;64321;48.796;44.740;2024-03-23T16:32:49;8.95;;;5.25;;
75700;SDS011;64321;48.796;44.740;2024-03-23T16:37:51;9.68;;;4.60;;
75700;SDS011;64321;48.796;44.740;2024-03-23T16:42:52;11.55;;;6.15;;
75700;SDS011;64321;48.796;44.740;2024-03-23T16:47:54;13.35;;;4.70;;
75700;SDS011;64321;48.796;44.740;2024-03-23T16:52:55;12.32;;;5.47;;
75700;SDS011;64321;48.796;44.740;2024-03-23T16:57:57;12.80;;;5.15;;
75700;SDS011;64321;48.796;44.740;2024-03-23T17:02:58;9.80;;;4.88;;
75700;SDS011;64321;48.796;44.740;2024-03-23T17:07:59;7.95;;;4.32;;
75700;SDS011;64321;48.796;44.740;2024-03-23T17:13:01;11.43;;;5.63;;
75700;SDS011;64321;48.796;44.740;2024-03-23T17:23:03;14.05;;;6.05;;
75700;SDS011;64321;48.796;44.740;2024-03-23T17:28:08;18.95;;;6.50;;
75700;SDS011;64321;48.796;44.740;2024-03-23T17:33:13;14.23;;;6.35;;
75700;SDS011;64321;48.796;44.740;2024-03-23T17:38:15;16.80;;;6.32;;
75700;SDS011;64321;48.796;44.740;2024-03-23T17:43:16;17.42;;;6.78;;
75700;SDS011;64321;48.796;44.740;2024-03-23T17:48:17;16.38;;;7.03;;
75700;SDS011;64321;48.796;44.740;2024-03-23T17:53:19;26.40;;;12.05;;
75700;SDS011;64321;48.796;44.740;2024-03-23T17:58:20;19.23;;;8.52;;
75700;SDS011;64321;48.796;44.740;2024-03-23T18:03:21;14.38;;;8.32;;
75700;SDS011;64321;48.796;44.740;2024-03-23T18:13:24;15.52;;;7.72;;
75700;SDS011;64321;48.796;44.740;2024-03-23T18:18:26;26.00;;;12.00;;
75700;SDS011;64321;48.796;44.740;2024-03-23T18:23:27;40.88;;;18.23;;
75700;SDS011;64321;48.796;44.740;2024-03-23T18:28:29;39.08;;;16.42;;
75700;SDS011;64321;48.796;44.740;2024-03-23T18:33:37;17.40;;;8.38;;
75700;SDS011;64321;48.796;44.740;2024-03-23T18:38:41;23.02;;;7.57;;
75700;SDS011;64321;48.796;44.740;2024-03-23T18:43:49;21.90;;;8.38;;
75700;SDS011;64321;48.796;44.740;2024-03-23T18:48:51;18.52;;;8.40;;
75700;SDS011;64321;48.796;44.740;2024-03-23T18:53:55;15.70;;;7.65;;
75700;SDS011;64321;48.796;44.740;2024-03-23T18:59:02;15.07;;;7.90;;
75700;SDS011;64321;48.796;44.740;2024-03-23T19:04:04;17.08;;;7.93;;
75700;SDS011;64321;48.796;44.740;2024-03-23T19:09:05;17.77;;;7.55;;
75700;SDS011;64321;48.796;44.740;2024-03-23T19:14:07;22.90;;;11.60;;
75700;SDS011;64321;48.796;44.740;2024-03-23T19:19:09;35.50;;;14.90;;
75700;SDS011;64321;48.796;44.740;2024-03-23T19:24:10;36.63;;;14.52;;
75700;SDS011;64321;48.796;44.740;2024-03-23T19:29:12;24.60;;;10.32;;
75700;SDS011;64321;48.796;44.740;2024-03-23T19:34:13;31.42;;;12.38;;
75700;SDS011;64321;48.796;44.740;2024-03-23T19:39:14;21.42;;;9.25;;
75700;SDS011;64321;48.796;44.740;2024-03-23T19:49:17;19.90;;;9.52;;
75700;SDS011;64321;48.796;44.740;2024-03-23T19:54:19;17.98;;;8.15;;
75700;SDS011;64321;48.796;44.740;2024-03-23T20:04:22;17.17;;;8.02;;
75700;SDS011;64321;48.796;44.740;2024-03-23T20:09:23;18.27;;;8.02;;
75700;SDS011;64321;48.796;44.740;2024-03-23T20:14:26;13.27;;;7.43;;
75700;SDS011;64321;48.796;44.740;2024-03-23T20:19:28;14.02;;;6.72;;
75700;SDS011;64321;48.796;44.740;2024-03-23T20:24:30;14.80;;;6.88;;
75700;SDS011;64321;48.796;44.740;2024-03-23T20:29:32;14.70;;;7.05;;
75700;SDS011;64321;48.796;44.740;2024-03-23T20:34:33;17.58;;;7.45;;
75700;SDS011;64321;48.796;44.740;2024-03-23T20:39:35;16.90;;;7.22;;
75700;SDS011;64321;48.796;44.740;2024-03-23T20:44:36;14.18;;;6.95;;
75700;SDS011;64321;48.796;44.740;2024-03-23T20:49:38;13.68;;;6.30;;
75700;SDS011;64321;48.796;44.740;2024-03-23T20:54:40;13.68;;;6.85;;
75700;SDS011;64321;48.796;44.740;2024-03-23T20:59:42;15.63;;;6.97;;
75700;SDS011;64321;48.796;44.740;2024-03-23T21:04:44;16.63;;;7.40;;
75700;SDS011;64321;48.796;44.740;2024-03-23T21:09:46;14.80;;;7.28;;
75700;SDS011;64321;48.796;44.740;2024-03-23T21:14:47;14.52;;;6.45;;
75700;SDS011;64321;48.796;44.740;2024-03-23T21:19:51;13.68;;;6.88;;
75700;SDS011;64321;48.796;44.740;2024-03-23T21:24:52;14.18;;;4.82;;
75700;SDS011;64321;48.796;44.740;2024-03-23T21:29:53;14.23;;;6.13;;
75700;SDS011;64321;48.796;44.740;2024-03-23T21:34:54;13.40;;;6.53;;
75700;SDS011;64321;48.796;44.740;2024-03-23T21:39:56;15.63;;;6.97;;
75700;SDS011;64321;48.796;44.740;2024-03-23T21:44:58;15.07;;;6.82;;
75700;SDS011;64321;48.796;44.740;2024-03-23T21:49:59;15.88;;;7.72;;
75700;SDS011;64321;48.796;44.740;2024-03-23T21:55:00;16.30;;;7.38;;
75700;SDS011;64321;48.796;44.740;2024-03-23T22:00:04;17.67;;;7.47;;
75700;SDS011;64321;48.796;44.740;2024-03-23T22:05:13;14.52;;;6.30;;
75700;SDS011;64321;48.796;44.740;2024-03-23T22:10:15;17.40;;;7.57;;
75700;SDS011;64321;48.796;44.740;2024-03-23T22:15:16;14.73;;;6.65;;
75700;SDS011;64321;48.796;44.740;2024-03-23T22:20:19;16.13;;;7.45;;
75700;SDS011;64321;48.796;44.740;2024-03-23T22:25:21;15.85;;;8.90;;
75700;SDS011;64321;48.796;44.740;2024-03-23T22:30:23;11.02;;;5.72;;
75700;SDS011;64321;48.796;44.740;2024-03-23T22:35:24;11.57;;;6.57;;
75700;SDS011;64321;48.796;44.740;2024-03-23T22:40:27;13.60;;;6.07;;
75700;SDS011;64321;48.796;44.740;2024-03-23T22:45:29;11.25;;;5.63;;
75700;SDS011;64321;48.796;44.740;2024-03-23T22:50:31;12.55;;;6.22;;
75700;SDS011;64321;48.796;44.740;2024-03-23T22:55:32;15.35;;;6.30;;
75700;SDS011;64321;48.796;44.740;2024-03-23T23:00:33;15.43;;;6.32;;
75700;SDS011;64321;48.796;44.740;2024-03-23T23:10:37;14.52;;;6.32;;
75700;SDS011;64321;48.796;44.740;2024-03-23T23:15:39;14.05;;;6.05;;
75700;SDS011;64321;48.796;44.740;2024-03-23T23:20:41;17.77;;;6.90;;
75700;SDS011;64321;48.796;44.740;2024-03-23T23:25:42;19.65;;;6.65;;
75700;SDS011;64321;48.796;44.740;2024-03-23T23:30:47;20.27;;;7.50;;
75700;SDS011;64321;48.796;44.740;2024-03-23T23:35:55;15.35;;;7.00;;
75700;SDS011;64321;48.796;44.740;2024-03-23T23:40:56;14.30;;;5.80;;
75700;SDS011;64321;48.796;44.740;2024-03-23T23:45:58;19.27;;;7.47;;
75700;SDS011;64321;48.796;44.740;2024-03-23T23:50:59;15.70;;;6.38;;
75700;SDS011;64321;48.796;44.740;2024-03-23T23:56:01;18.88;;;7.40;;
